sensor_id;sensor_type;location;lat;lon;timestamp;P1;durP1;ratioP1;P2;durP2;ratioP2
31910;SDS011;18457;52.432;16.914;2023-02-01T00:01:21;12.10;;;2.90;;
31910;SDS011;18457;52.432;16.914;2023-02-01T00:03:49;10.50;;;2.30;;
31910;SDS011;18457;52.432;16.914;2023-02-01T00:06:17;15.40;;;3.20;;
31910;SDS011;18457;52.432;16.914;2023-02-01T00:08:46;9.20;;;2.50;;
31910;SDS011;18457;52.432;16.914;2023-02-01T00:11:14;12.60;;;2.70;;
31910;SDS011;18457;52.432;16.914;2023-02-01T00:13:43;18.40;;;3.00;;
31910;SDS011;18457;52.432;16.914;2023-02-01T00:16:12;16.60;;;2.20;;
31910;SDS011;18457;52.432;16.914;2023-02-01T00:18:43;11.00;;;2.10;;
31910;SDS011;18457;52.432;16.914;2023-02-01T00:21:12;18.20;;;2.90;;
31910;SDS011;18457;52.432;16.914;2023-02-01T00:23:42;13.80;;;2.70;;
31910;SDS011;18457;52.432;16.914;2023-02-01T00:26:12;17.50;;;3.20;;
31910;SDS011;18457;52.432;16.914;2023-02-01T00:28:43;11.80;;;2.70;;
31910;SDS011;18457;52.432;16.914;2023-02-01T00:31:12;17.60;;;2.70;;
31910;SDS011;18457;52.432;16.914;2023-02-01T00:33:42;14.20;;;3.90;;
31910;SDS011;18457;52.432;16.914;2023-02-01T00:36:13;7.80;;;2.20;;
31910;SDS011;18457;52.432;16.914;2023-02-01T00:38:42;9.10;;;2.50;;
31910;SDS011;18457;52.432;16.914;2023-02-01T00:41:11;16.10;;;2.50;;
31910;SDS011;18457;52.432;16.914;2023-02-01T00:43:41;10.10;;;1.60;;
31910;SDS011;18457;52.432;16.914;2023-02-01T00:46:10;11.50;;;2.30;;
31910;SDS011;18457;52.432;16.914;2023-02-01T00:48:40;19.10;;;2.50;;
31910;SDS011;18457;52.432;16.914;2023-02-01T00:51:10;19.60;;;3.50;;
31910;SDS011;18457;52.432;16.914;2023-02-01T00:53:40;16.70;;;3.00;;
31910;SDS011;18457;52.432;16.914;2023-02-01T00:56:09;17.40;;;2.90;;
31910;SDS011;18457;52.432;16.914;2023-02-01T00:58:38;13.60;;;2.40;;
31910;SDS011;18457;52.432;16.914;2023-02-01T01:01:08;14.00;;;2.60;;
31910;SDS011;18457;52.432;16.914;2023-02-01T01:03:39;16.30;;;3.00;;
31910;SDS011;18457;52.432;16.914;2023-02-01T01:06:10;15.40;;;2.60;;
31910;SDS011;18457;52.432;16.914;2023-02-01T01:08:40;10.20;;;2.60;;
31910;SDS011;18457;52.432;16.914;2023-02-01T01:11:11;16.40;;;2.70;;
31910;SDS011;18457;52.432;16.914;2023-02-01T01:13:41;19.30;;;2.90;;
31910;SDS011;18457;52.432;16.914;2023-02-01T01:16:11;13.90;;;2.50;;
31910;SDS011;18457;52.432;16.914;2023-02-01T01:18:40;11.80;;;2.30;;
31910;SDS011;18457;52.432;16.914;2023-02-01T01:21:09;15.00;;;2.70;;
31910;SDS011;18457;52.432;16.914;2023-02-01T01:23:40;15.40;;;2.70;;
31910;SDS011;18457;52.432;16.914;2023-02-01T01:26:11;10.20;;;2.20;;
31910;SDS011;18457;52.432;16.914;2023-02-01T01:28:42;11.20;;;2.60;;
31910;SDS011;18457;52.432;16.914;2023-02-01T01:31:11;14.00;;;3.10;;
31910;SDS011;18457;52.432;16.914;2023-02-01T01:33:41;9.40;;;2.40;;
31910;SDS011;18457;52.432;16.914;2023-02-01T01:36:11;10.20;;;1.90;;
31910;SDS011;18457;52.432;16.914;2023-02-01T01:38:40;12.10;;;2.30;;
31910;SDS011;18457;52.432;16.914;2023-02-01T01:41:11;16.10;;;2.60;;
31910;SDS011;18457;52.432;16.914;2023-02-01T01:43:50;14.80;;;2.20;;
31910;SDS011;18457;52.432;16.914;2023-02-01T01:46:24;17.90;;;2.70;;
31910;SDS011;18457;52.432;16.914;2023-02-01T01:48:56;11.70;;;2.30;;
31910;SDS011;18457;52.432;16.914;2023-02-01T01:51:29;16.10;;;2.60;;
31910;SDS011;18457;52.432;16.914;2023-02-01T01:54:03;17.00;;;2.60;;
31910;SDS011;18457;52.432;16.914;2023-02-01T01:56:37;13.60;;;2.20;;
31910;SDS011;18457;52.432;16.914;2023-02-01T01:59:07;10.00;;;2.30;;
31910;SDS011;18457;52.432;16.914;2023-02-01T02:01:36;18.80;;;3.10;;
31910;SDS011;18457;52.432;16.914;2023-02-01T02:04:05;15.20;;;2.80;;
31910;SDS011;18457;52.432;16.914;2023-02-01T02:06:36;27.80;;;5.20;;
31910;SDS011;18457;52.432;16.914;2023-02-01T02:09:12;19.30;;;3.90;;
31910;SDS011;18457;52.432;16.914;2023-02-01T02:11:41;25.60;;;3.70;;
31910;SDS011;18457;52.432;16.914;2023-02-01T02:14:11;12.60;;;1.80;;
31910;SDS011;18457;52.432;16.914;2023-02-01T02:16:52;17.50;;;2.60;;
31910;SDS011;18457;52.432;16.914;2023-02-01T02:19:42;16.00;;;2.10;;
31910;SDS011;18457;52.432;16.914;2023-02-01T02:22:57;9.80;;;1.70;;
31910;SDS011;18457;52.432;16.914;2023-02-01T02:25:48;11.10;;;2.90;;
31910;SDS011;18457;52.432;16.914;2023-02-01T02:28:45;17.80;;;3.10;;
31910;SDS011;18457;52.432;16.914;2023-02-01T02:31:38;10.70;;;2.30;;
31910;SDS011;18457;52.432;16.914;2023-02-01T02:34:22;20.30;;;2.50;;
31910;SDS011;18457;52.432;16.914;2023-02-01T02:37:00;10.80;;;2.80;;
31910;SDS011;18457;52.432;16.914;2023-02-01T02:39:38;12.80;;;3.10;;
31910;SDS011;18457;52.432;16.914;2023-02-01T02:42:19;10.60;;;2.30;;
31910;SDS011;18457;52.432;16.914;2023-02-01T02:45:14;15.30;;;2.90;;
31910;SDS011;18457;52.432;16.914;2023-02-01T02:48:09;13.40;;;2.80;;
31910;SDS011;18457;52.432;16.914;2023-02-01T02:50:46;12.50;;;2.50;;
31910;SDS011;18457;52.432;16.914;2023-02-01T02:53:40;10.10;;;2.10;;
31910;SDS011;18457;52.432;16.914;2023-02-01T02:56:34;12.90;;;2.80;;
31910;SDS011;18457;52.432;16.914;2023-02-01T02:59:23;14.10;;;2.60;;
31910;SDS011;18457;52.432;16.914;2023-02-01T03:02:13;22.00;;;2.80;;
31910;SDS011;18457;52.432;16.914;2023-02-01T03:05:03;18.10;;;2.30;;
31910;SDS011;18457;52.432;16.914;2023-02-01T03:10:38;15.40;;;2.50;;
31910;SDS011;18457;52.432;16.914;2023-02-01T03:13:14;16.40;;;3.40;;
31910;SDS011;18457;52.432;16.914;2023-02-01T03:15:49;13.50;;;3.10;;
31910;SDS011;18457;52.432;16.914;2023-02-01T03:18:25;16.90;;;2.90;;
31910;SDS011;18457;52.432;16.914;2023-02-01T03:20:58;10.80;;;2.00;;
31910;SDS011;18457;52.432;16.914;2023-02-01T03:23:32;16.60;;;3.90;;
31910;SDS011;18457;52.432;16.914;2023-02-01T03:26:04;16.00;;;2.70;;
31910;SDS011;18457;52.432;16.914;2023-02-01T03:28:36;11.30;;;2.90;;
31910;SDS011;18457;52.432;16.914;2023-02-01T03:31:10;17.30;;;2.50;;
31910;SDS011;18457;52.432;16.914;2023-02-01T03:33:41;20.10;;;3.10;;
31910;SDS011;18457;52.432;16.914;2023-02-01T03:36:12;14.10;;;2.50;;
31910;SDS011;18457;52.432;16.914;2023-02-01T03:38:48;13.00;;;3.20;;
31910;SDS011;18457;52.432;16.914;2023-02-01T03:41:23;16.50;;;2.60;;
31910;SDS011;18457;52.432;16.914;2023-02-01T03:44:00;16.00;;;3.10;;
31910;SDS011;18457;52.432;16.914;2023-02-01T03:46:34;10.30;;;3.10;;
31910;SDS011;18457;52.432;16.914;2023-02-01T03:51:37;10.80;;;3.00;;
31910;SDS011;18457;52.432;16.914;2023-02-01T03:54:09;16.20;;;3.30;;
31910;SDS011;18457;52.432;16.914;2023-02-01T03:56:41;14.00;;;2.80;;
31910;SDS011;18457;52.432;16.914;2023-02-01T03:59:12;13.10;;;2.80;;
31910;SDS011;18457;52.432;16.914;2023-02-01T04:01:42;15.60;;;3.00;;
31910;SDS011;18457;52.432;16.914;2023-02-01T04:04:11;11.40;;;2.50;;
31910;SDS011;18457;52.432;16.914;2023-02-01T04:06:46;15.80;;;2.90;;
31910;SDS011;18457;52.432;16.914;2023-02-01T04:09:16;19.70;;;3.70;;
31910;SDS011;18457;52.432;16.914;2023-02-01T04:11:45;14.90;;;2.40;;
31910;SDS011;18457;52.432;16.914;2023-02-01T04:14:13;19.70;;;3.40;;
31910;SDS011;18457;52.432;16.914;2023-02-01T04:16:41;22.10;;;4.30;;
31910;SDS011;18457;52.432;16.914;2023-02-01T04:19:10;13.00;;;2.60;;
31910;SDS011;18457;52.432;16.914;2023-02-01T04:21:38;9.70;;;2.20;;
31910;SDS011;18457;52.432;16.914;2023-02-01T04:24:07;15.20;;;3.40;;
31910;SDS011;18457;52.432;16.914;2023-02-01T04:26:36;17.80;;;2.50;;
31910;SDS011;18457;52.432;16.914;2023-02-01T04:29:04;12.90;;;2.40;;
31910;SDS011;18457;52.432;16.914;2023-02-01T04:31:32;19.40;;;3.90;;
31910;SDS011;18457;52.432;16.914;2023-02-01T04:34:03;13.30;;;3.10;;
31910;SDS011;18457;52.432;16.914;2023-02-01T04:36:31;12.80;;;2.40;;
31910;SDS011;18457;52.432;16.914;2023-02-01T04:39:00;13.60;;;2.30;;
31910;SDS011;18457;52.432;16.914;2023-02-01T04:41:28;16.50;;;2.50;;
31910;SDS011;18457;52.432;16.914;2023-02-01T04:43:57;16.70;;;3.00;;
31910;SDS011;18457;52.432;16.914;2023-02-01T04:46:25;10.00;;;2.40;;
31910;SDS011;18457;52.432;16.914;2023-02-01T04:48:53;17.00;;;2.70;;
31910;SDS011;18457;52.432;16.914;2023-02-01T04:51:22;12.10;;;2.60;;
31910;SDS011;18457;52.432;16.914;2023-02-01T04:53:50;17.00;;;2.80;;
31910;SDS011;18457;52.432;16.914;2023-02-01T04:56:18;25.50;;;3.20;;
31910;SDS011;18457;52.432;16.914;2023-02-01T04:58:47;15.00;;;2.50;;
31910;SDS011;18457;52.432;16.914;2023-02-01T05:01:15;14.70;;;3.10;;
31910;SDS011;18457;52.432;16.914;2023-02-01T05:03:44;5.00;;;1.90;;
31910;SDS011;18457;52.432;16.914;2023-02-01T05:06:12;16.80;;;2.60;;
31910;SDS011;18457;52.432;16.914;2023-02-01T05:08:40;10.90;;;2.20;;
31910;SDS011;18457;52.432;16.914;2023-02-01T05:11:09;14.90;;;2.90;;
31910;SDS011;18457;52.432;16.914;2023-02-01T05:13:58;14.20;;;2.70;;
31910;SDS011;18457;52.432;16.914;2023-02-01T05:16:29;12.20;;;1.90;;
31910;SDS011;18457;52.432;16.914;2023-02-01T05:18:57;10.50;;;2.10;;
31910;SDS011;18457;52.432;16.914;2023-02-01T05:21:27;14.40;;;3.90;;
31910;SDS011;18457;52.432;16.914;2023-02-01T05:23:55;10.90;;;2.50;;
31910;SDS011;18457;52.432;16.914;2023-02-01T05:26:40;16.70;;;2.40;;
31910;SDS011;18457;52.432;16.914;2023-02-01T05:29:09;12.90;;;2.90;;
31910;SDS011;18457;52.432;16.914;2023-02-01T05:31:38;17.30;;;2.60;;
31910;SDS011;18457;52.432;16.914;2023-02-01T05:34:07;17.10;;;3.40;;
31910;SDS011;18457;52.432;16.914;2023-02-01T05:36:36;12.50;;;3.10;;
31910;SDS011;18457;52.432;16.914;2023-02-01T05:39:04;14.40;;;2.60;;
31910;SDS011;18457;52.432;16.914;2023-02-01T05:41:34;12.40;;;2.20;;
31910;SDS011;18457;52.432;16.914;2023-02-01T05:44:03;12.50;;;2.20;;
31910;SDS011;18457;52.432;16.914;2023-02-01T05:46:34;11.90;;;2.10;;
31910;SDS011;18457;52.432;16.914;2023-02-01T05:49:03;14.10;;;3.00;;
31910;SDS011;18457;52.432;16.914;2023-02-01T05:51:32;10.30;;;2.10;;
31910;SDS011;18457;52.432;16.914;2023-02-01T05:54:00;10.10;;;2.20;;
31910;SDS011;18457;52.432;16.914;2023-02-01T05:56:29;16.90;;;3.60;;
31910;SDS011;18457;52.432;16.914;2023-02-01T05:58:57;13.50;;;3.20;;
31910;SDS011;18457;52.432;16.914;2023-02-01T06:01:25;17.40;;;3.20;;
31910;SDS011;18457;52.432;16.914;2023-02-01T06:03:54;18.60;;;3.20;;
31910;SDS011;18457;52.432;16.914;2023-02-01T06:06:22;15.80;;;3.40;;
31910;SDS011;18457;52.432;16.914;2023-02-01T06:08:51;16.90;;;3.60;;
31910;SDS011;18457;52.432;16.914;2023-02-01T06:11:19;21.40;;;4.50;;
31910;SDS011;18457;52.432;16.914;2023-02-01T06:13:59;16.00;;;3.10;;
31910;SDS011;18457;52.432;16.914;2023-02-01T06:16:27;14.10;;;3.10;;
31910;SDS011;18457;52.432;16.914;2023-02-01T06:18:56;16.50;;;3.20;;
31910;SDS011;18457;52.432;16.914;2023-02-01T06:21:25;10.20;;;2.80;;
31910;SDS011;18457;52.432;16.914;2023-02-01T06:23:53;22.90;;;3.80;;
31910;SDS011;18457;52.432;16.914;2023-02-01T06:26:23;17.50;;;4.30;;
31910;SDS011;18457;52.432;16.914;2023-02-01T06:28:52;13.40;;;3.20;;
31910;SDS011;18457;52.432;16.914;2023-02-01T06:31:20;19.40;;;3.50;;
31910;SDS011;18457;52.432;16.914;2023-02-01T06:33:49;18.90;;;3.20;;
31910;SDS011;18457;52.432;16.914;2023-02-01T06:36:20;13.60;;;2.80;;
31910;SDS011;18457;52.432;16.914;2023-02-01T06:38:48;20.50;;;3.30;;
31910;SDS011;18457;52.432;16.914;2023-02-01T06:41:17;14.70;;;2.90;;
31910;SDS011;18457;52.432;16.914;2023-02-01T06:43:47;18.10;;;4.80;;
31910;SDS011;18457;52.432;16.914;2023-02-01T06:46:15;16.30;;;2.90;;
31910;SDS011;18457;52.432;16.914;2023-02-01T06:48:44;24.10;;;3.50;;
31910;SDS011;18457;52.432;16.914;2023-02-01T06:51:18;16.00;;;3.80;;
31910;SDS011;18457;52.432;16.914;2023-02-01T06:53:49;22.90;;;3.90;;
31910;SDS011;18457;52.432;16.914;2023-02-01T06:56:17;19.70;;;4.50;;
31910;SDS011;18457;52.432;16.914;2023-02-01T06:58:47;15.00;;;3.20;;
31910;SDS011;18457;52.432;16.914;2023-02-01T07:01:16;18.00;;;4.10;;
31910;SDS011;18457;52.432;16.914;2023-02-01T07:03:47;15.20;;;3.50;;
31910;SDS011;18457;52.432;16.914;2023-02-01T07:06:17;21.00;;;3.80;;
31910;SDS011;18457;52.432;16.914;2023-02-01T07:08:46;11.10;;;3.00;;
31910;SDS011;18457;52.432;16.914;2023-02-01T07:11:16;13.60;;;3.20;;
31910;SDS011;18457;52.432;16.914;2023-02-01T07:13:45;16.30;;;4.20;;
31910;SDS011;18457;52.432;16.914;2023-02-01T07:16:15;15.90;;;3.40;;
31910;SDS011;18457;52.432;16.914;2023-02-01T07:18:45;17.80;;;3.50;;
31910;SDS011;18457;52.432;16.914;2023-02-01T07:21:14;14.10;;;3.40;;
31910;SDS011;18457;52.432;16.914;2023-02-01T07:23:42;20.40;;;3.20;;
31910;SDS011;18457;52.432;16.914;2023-02-01T07:26:12;25.40;;;4.00;;
31910;SDS011;18457;52.432;16.914;2023-02-01T07:28:41;15.00;;;3.80;;
31910;SDS011;18457;52.432;16.914;2023-02-01T07:31:11;16.10;;;4.20;;
31910;SDS011;18457;52.432;16.914;2023-02-01T07:33:42;25.20;;;3.50;;
31910;SDS011;18457;52.432;16.914;2023-02-01T07:36:11;17.90;;;3.50;;
31910;SDS011;18457;52.432;16.914;2023-02-01T07:38:41;18.60;;;4.80;;
31910;SDS011;18457;52.432;16.914;2023-02-01T07:41:10;18.50;;;3.70;;
31910;SDS011;18457;52.432;16.914;2023-02-01T07:43:39;13.20;;;3.30;;
31910;SDS011;18457;52.432;16.914;2023-02-01T07:46:07;21.50;;;4.50;;
31910;SDS011;18457;52.432;16.914;2023-02-01T07:48:37;22.90;;;4.30;;
31910;SDS011;18457;52.432;16.914;2023-02-01T07:51:08;22.10;;;5.60;;
31910;SDS011;18457;52.432;16.914;2023-02-01T07:53:38;25.70;;;5.00;;
31910;SDS011;18457;52.432;16.914;2023-02-01T07:56:10;16.70;;;4.90;;
31910;SDS011;18457;52.432;16.914;2023-02-01T07:58:40;23.20;;;4.40;;
31910;SDS011;18457;52.432;16.914;2023-02-01T08:01:13;24.20;;;3.80;;
31910;SDS011;18457;52.432;16.914;2023-02-01T08:03:51;23.90;;;5.00;;
31910;SDS011;18457;52.432;16.914;2023-02-01T08:06:22;20.20;;;4.40;;
31910;SDS011;18457;52.432;16.914;2023-02-01T08:08:52;18.80;;;4.40;;
31910;SDS011;18457;52.432;16.914;2023-02-01T08:11:24;25.90;;;4.60;;
31910;SDS011;18457;52.432;16.914;2023-02-01T08:13:54;16.60;;;4.40;;
31910;SDS011;18457;52.432;16.914;2023-02-01T08:16:23;18.10;;;4.90;;
31910;SDS011;18457;52.432;16.914;2023-02-01T08:18:52;20.00;;;4.20;;
31910;SDS011;18457;52.432;16.914;2023-02-01T08:21:22;21.50;;;4.70;;
31910;SDS011;18457;52.432;16.914;2023-02-01T08:23:53;22.60;;;4.10;;
31910;SDS011;18457;52.432;16.914;2023-02-01T08:26:23;24.50;;;4.10;;
31910;SDS011;18457;52.432;16.914;2023-02-01T08:28:54;19.10;;;4.00;;
31910;SDS011;18457;52.432;16.914;2023-02-01T08:31:24;21.30;;;4.60;;
31910;SDS011;18457;52.432;16.914;2023-02-01T08:33:55;14.00;;;3.90;;
31910;SDS011;18457;52.432;16.914;2023-02-01T08:36:25;25.80;;;4.00;;
31910;SDS011;18457;52.432;16.914;2023-02-01T08:38:55;24.00;;;3.80;;
31910;SDS011;18457;52.432;16.914;2023-02-01T08:41:24;20.40;;;4.40;;
31910;SDS011;18457;52.432;16.914;2023-02-01T08:43:54;16.30;;;3.60;;
31910;SDS011;18457;52.432;16.914;2023-02-01T08:46:23;19.90;;;4.00;;
31910;SDS011;18457;52.432;16.914;2023-02-01T08:48:51;12.30;;;3.70;;
31910;SDS011;18457;52.432;16.914;2023-02-01T08:51:21;18.90;;;4.10;;
31910;SDS011;18457;52.432;16.914;2023-02-01T08:53:51;14.40;;;4.30;;
31910;SDS011;18457;52.432;16.914;2023-02-01T08:56:19;15.90;;;3.90;;
31910;SDS011;18457;52.432;16.914;2023-02-01T08:58:49;19.10;;;5.20;;
31910;SDS011;18457;52.432;16.914;2023-02-01T09:01:17;23.60;;;4.60;;
31910;SDS011;18457;52.432;16.914;2023-02-01T09:03:46;22.90;;;4.10;;
31910;SDS011;18457;52.432;16.914;2023-02-01T09:06:15;22.40;;;4.40;;
31910;SDS011;18457;52.432;16.914;2023-02-01T09:08:44;20.80;;;4.20;;
31910;SDS011;18457;52.432;16.914;2023-02-01T09:11:13;17.00;;;4.60;;
31910;SDS011;18457;52.432;16.914;2023-02-01T09:13:43;21.50;;;5.40;;
31910;SDS011;18457;52.432;16.914;2023-02-01T09:16:12;14.30;;;3.80;;
31910;SDS011;18457;52.432;16.914;2023-02-01T09:18:42;16.00;;;4.20;;
31910;SDS011;18457;52.432;16.914;2023-02-01T09:21:28;18.30;;;4.30;;
31910;SDS011;18457;52.432;16.914;2023-02-01T09:23:57;16.50;;;3.90;;
31910;SDS011;18457;52.432;16.914;2023-02-01T09:26:26;13.70;;;3.30;;
31910;SDS011;18457;52.432;16.914;2023-02-01T09:29:00;16.20;;;3.50;;
31910;SDS011;18457;52.432;16.914;2023-02-01T09:31:29;15.20;;;2.80;;
31910;SDS011;18457;52.432;16.914;2023-02-01T09:33:58;11.30;;;3.20;;
31910;SDS011;18457;52.432;16.914;2023-02-01T09:36:26;12.70;;;3.50;;
31910;SDS011;18457;52.432;16.914;2023-02-01T09:38:58;15.80;;;3.90;;
31910;SDS011;18457;52.432;16.914;2023-02-01T09:41:32;15.70;;;4.20;;
31910;SDS011;18457;52.432;16.914;2023-02-01T09:44:10;8.90;;;3.30;;
31910;SDS011;18457;52.432;16.914;2023-02-01T09:46:49;12.50;;;4.40;;
31910;SDS011;18457;52.432;16.914;2023-02-01T09:49:24;12.40;;;4.20;;
31910;SDS011;18457;52.432;16.914;2023-02-01T09:51:56;16.30;;;4.80;;
31910;SDS011;18457;52.432;16.914;2023-02-01T09:54:26;14.40;;;4.50;;
31910;SDS011;18457;52.432;16.914;2023-02-01T09:57:03;15.40;;;4.40;;
31910;SDS011;18457;52.432;16.914;2023-02-01T09:59:37;13.50;;;4.80;;
31910;SDS011;18457;52.432;16.914;2023-02-01T10:02:11;12.00;;;4.20;;
31910;SDS011;18457;52.432;16.914;2023-02-01T10:04:43;11.50;;;5.00;;
31910;SDS011;18457;52.432;16.914;2023-02-01T10:07:18;14.40;;;5.10;;
31910;SDS011;18457;52.432;16.914;2023-02-01T10:12:35;17.20;;;4.50;;
31910;SDS011;18457;52.432;16.914;2023-02-01T10:15:22;14.90;;;4.50;;
31910;SDS011;18457;52.432;16.914;2023-02-01T10:18:10;16.30;;;4.80;;
31910;SDS011;18457;52.432;16.914;2023-02-01T10:20:51;11.60;;;3.70;;
31910;SDS011;18457;52.432;16.914;2023-02-01T10:23:31;15.30;;;5.50;;
31910;SDS011;18457;52.432;16.914;2023-02-01T10:26:17;18.80;;;6.70;;
31910;SDS011;18457;52.432;16.914;2023-02-01T10:28:48;20.40;;;5.80;;
31910;SDS011;18457;52.432;16.914;2023-02-01T10:31:19;18.30;;;4.80;;
31910;SDS011;18457;52.432;16.914;2023-02-01T10:33:51;14.30;;;4.60;;
31910;SDS011;18457;52.432;16.914;2023-02-01T10:36:27;20.20;;;4.90;;
31910;SDS011;18457;52.432;16.914;2023-02-01T10:38:58;15.80;;;6.40;;
31910;SDS011;18457;52.432;16.914;2023-02-01T10:41:29;12.80;;;4.60;;
31910;SDS011;18457;52.432;16.914;2023-02-01T10:44:02;11.70;;;4.70;;
31910;SDS011;18457;52.432;16.914;2023-02-01T10:46:33;19.30;;;5.50;;
31910;SDS011;18457;52.432;16.914;2023-02-01T10:49:03;15.40;;;5.30;;
31910;SDS011;18457;52.432;16.914;2023-02-01T10:51:36;16.20;;;4.70;;
31910;SDS011;18457;52.432;16.914;2023-02-01T10:54:11;10.50;;;5.10;;
31910;SDS011;18457;52.432;16.914;2023-02-01T10:56:44;10.70;;;5.50;;
31910;SDS011;18457;52.432;16.914;2023-02-01T10:59:16;14.20;;;5.00;;
31910;SDS011;18457;52.432;16.914;2023-02-01T11:01:49;16.70;;;5.50;;
31910;SDS011;18457;52.432;16.914;2023-02-01T11:04:26;16.30;;;5.60;;
31910;SDS011;18457;52.432;16.914;2023-02-01T11:07:05;18.70;;;5.80;;
31910;SDS011;18457;52.432;16.914;2023-02-01T11:09:37;18.10;;;5.10;;
31910;SDS011;18457;52.432;16.914;2023-02-01T11:12:20;21.80;;;5.30;;
31910;SDS011;18457;52.432;16.914;2023-02-01T11:14:57;18.40;;;5.40;;
31910;SDS011;18457;52.432;16.914;2023-02-01T11:17:31;13.00;;;4.70;;
31910;SDS011;18457;52.432;16.914;2023-02-01T11:20:04;16.00;;;5.60;;
31910;SDS011;18457;52.432;16.914;2023-02-01T11:22:45;12.70;;;4.70;;
31910;SDS011;18457;52.432;16.914;2023-02-01T11:25:16;9.50;;;4.30;;
31910;SDS011;18457;52.432;16.914;2023-02-01T11:27:46;17.90;;;5.00;;
31910;SDS011;18457;52.432;16.914;2023-02-01T11:30:27;19.80;;;5.10;;
31910;SDS011;18457;52.432;16.914;2023-02-01T11:33:02;14.80;;;5.10;;
31910;SDS011;18457;52.432;16.914;2023-02-01T11:35:34;13.80;;;4.80;;
31910;SDS011;18457;52.432;16.914;2023-02-01T11:40:39;15.70;;;5.20;;
31910;SDS011;18457;52.432;16.914;2023-02-01T11:43:08;9.20;;;4.60;;
31910;SDS011;18457;52.432;16.914;2023-02-01T11:45:53;9.70;;;4.10;;
31910;SDS011;18457;52.432;16.914;2023-02-01T11:48:24;11.70;;;5.00;;
31910;SDS011;18457;52.432;16.914;2023-02-01T11:50:57;14.70;;;4.80;;
31910;SDS011;18457;52.432;16.914;2023-02-01T11:53:38;12.70;;;5.00;;
31910;SDS011;18457;52.432;16.914;2023-02-01T11:56:24;9.80;;;4.50;;
31910;SDS011;18457;52.432;16.914;2023-02-01T11:59:02;15.20;;;5.70;;
31910;SDS011;18457;52.432;16.914;2023-02-01T12:01:46;21.30;;;5.70;;
31910;SDS011;18457;52.432;16.914;2023-02-01T12:07:30;15.30;;;5.30;;
31910;SDS011;18457;52.432;16.914;2023-02-01T12:10:15;9.50;;;5.10;;
31910;SDS011;18457;52.432;16.914;2023-02-01T12:12:54;13.50;;;5.40;;
31910;SDS011;18457;52.432;16.914;2023-02-01T12:15:39;11.50;;;5.50;;
31910;SDS011;18457;52.432;16.914;2023-02-01T12:21:22;11.20;;;5.70;;
31910;SDS011;18457;52.432;16.914;2023-02-01T12:23:59;13.90;;;5.30;;
31910;SDS011;18457;52.432;16.914;2023-02-01T12:26:47;15.10;;;5.20;;
31910;SDS011;18457;52.432;16.914;2023-02-01T12:32:28;14.20;;;5.10;;
31910;SDS011;18457;52.432;16.914;2023-02-01T12:35:13;13.80;;;5.30;;
31910;SDS011;18457;52.432;16.914;2023-02-01T12:37:57;14.30;;;5.70;;
31910;SDS011;18457;52.432;16.914;2023-02-01T12:40:40;13.70;;;4.90;;
31910;SDS011;18457;52.432;16.914;2023-02-01T12:43:18;15.10;;;4.80;;
31910;SDS011;18457;52.432;16.914;2023-02-01T12:45:53;8.80;;;5.00;;
31910;SDS011;18457;52.432;16.914;2023-02-01T12:48:26;7.90;;;4.40;;
31910;SDS011;18457;52.432;16.914;2023-02-01T12:50:59;9.20;;;4.00;;
31910;SDS011;18457;52.432;16.914;2023-02-01T12:53:33;8.00;;;4.10;;
31910;SDS011;18457;52.432;16.914;2023-02-01T12:56:15;15.40;;;5.00;;
31910;SDS011;18457;52.432;16.914;2023-02-01T12:58:49;7.20;;;4.50;;
31910;SDS011;18457;52.432;16.914;2023-02-01T13:01:22;10.10;;;3.80;;
31910;SDS011;18457;52.432;16.914;2023-02-01T13:03:57;10.90;;;3.90;;
31910;SDS011;18457;52.432;16.914;2023-02-01T13:06:34;11.50;;;3.40;;
31910;SDS011;18457;52.432;16.914;2023-02-01T13:09:07;14.60;;;3.50;;
31910;SDS011;18457;52.432;16.914;2023-02-01T13:11:45;8.70;;;4.00;;
31910;SDS011;18457;52.432;16.914;2023-02-01T13:14:18;10.00;;;4.10;;
31910;SDS011;18457;52.432;16.914;2023-02-01T13:16:53;8.40;;;3.70;;
31910;SDS011;18457;52.432;16.914;2023-02-01T13:19:28;15.80;;;4.50;;
31910;SDS011;18457;52.432;16.914;2023-02-01T13:22:10;10.50;;;3.60;;
31910;SDS011;18457;52.432;16.914;2023-02-01T13:24:43;13.90;;;4.80;;
31910;SDS011;18457;52.432;16.914;2023-02-01T13:29:46;13.20;;;3.80;;
31910;SDS011;18457;52.432;16.914;2023-02-01T13:32:23;7.00;;;3.50;;
31910;SDS011;18457;52.432;16.914;2023-02-01T13:35:26;13.20;;;4.20;;
31910;SDS011;18457;52.432;16.914;2023-02-01T13:38:20;8.30;;;3.50;;
31910;SDS011;18457;52.432;16.914;2023-02-01T13:41:08;12.60;;;4.00;;
31910;SDS011;18457;52.432;16.914;2023-02-01T13:43:48;11.90;;;4.20;;
31910;SDS011;18457;52.432;16.914;2023-02-01T13:46:20;16.80;;;4.80;;
31910;SDS011;18457;52.432;16.914;2023-02-01T13:48:50;13.30;;;4.50;;
31910;SDS011;18457;52.432;16.914;2023-02-01T13:51:31;15.50;;;4.20;;
31910;SDS011;18457;52.432;16.914;2023-02-01T13:54:02;16.80;;;5.30;;
31910;SDS011;18457;52.432;16.914;2023-02-01T13:56:40;12.30;;;4.80;;
31910;SDS011;18457;52.432;16.914;2023-02-01T14:08:41;11.10;;;3.70;;
31910;SDS011;18457;52.432;16.914;2023-02-01T14:23:16;12.50;;;4.00;;
31910;SDS011;18457;52.432;16.914;2023-02-01T14:26:02;11.90;;;3.50;;
31910;SDS011;18457;52.432;16.914;2023-02-01T14:28:35;12.10;;;3.90;;
31910;SDS011;18457;52.432;16.914;2023-02-01T14:31:15;10.60;;;4.00;;
31910;SDS011;18457;52.432;16.914;2023-02-01T14:34:00;13.50;;;4.10;;
31910;SDS011;18457;52.432;16.914;2023-02-01T14:36:43;15.10;;;3.50;;
31910;SDS011;18457;52.432;16.914;2023-02-01T14:39:20;14.10;;;3.70;;
31910;SDS011;18457;52.432;16.914;2023-02-01T14:41:53;13.80;;;3.80;;
31910;SDS011;18457;52.432;16.914;2023-02-01T14:44:30;9.80;;;3.00;;
31910;SDS011;18457;52.432;16.914;2023-02-01T14:50:16;12.40;;;3.40;;
31910;SDS011;18457;52.432;16.914;2023-02-01T14:53:03;18.00;;;3.70;;
31910;SDS011;18457;52.432;16.914;2023-02-01T14:55:42;16.70;;;3.80;;
31910;SDS011;18457;52.432;16.914;2023-02-01T14:58:16;10.10;;;2.90;;
31910;SDS011;18457;52.432;16.914;2023-02-01T15:01:00;11.20;;;2.50;;
31910;SDS011;18457;52.432;16.914;2023-02-01T15:06:23;9.70;;;2.80;;
31910;SDS011;18457;52.432;16.914;2023-02-01T15:08:57;6.40;;;2.30;;
31910;SDS011;18457;52.432;16.914;2023-02-01T15:11:29;11.30;;;3.20;;
31910;SDS011;18457;52.432;16.914;2023-02-01T15:13:58;12.50;;;2.60;;
31910;SDS011;18457;52.432;16.914;2023-02-01T15:16:27;9.90;;;2.30;;
31910;SDS011;18457;52.432;16.914;2023-02-01T15:19:07;9.90;;;2.70;;
31910;SDS011;18457;52.432;16.914;2023-02-01T15:21:43;10.00;;;3.80;;
31910;SDS011;18457;52.432;16.914;2023-02-01T15:24:14;12.40;;;3.40;;
31910;SDS011;18457;52.432;16.914;2023-02-01T15:26:47;13.10;;;3.20;;
31910;SDS011;18457;52.432;16.914;2023-02-01T15:29:16;13.80;;;3.10;;
31910;SDS011;18457;52.432;16.914;2023-02-01T15:31:47;9.70;;;2.80;;
31910;SDS011;18457;52.432;16.914;2023-02-01T15:34:19;18.30;;;3.40;;
31910;SDS011;18457;52.432;16.914;2023-02-01T15:36:48;14.20;;;3.80;;
31910;SDS011;18457;52.432;16.914;2023-02-01T15:39:30;10.90;;;3.20;;
31910;SDS011;18457;52.432;16.914;2023-02-01T15:42:00;11.90;;;3.60;;
31910;SDS011;18457;52.432;16.914;2023-02-01T15:44:38;10.90;;;3.60;;
31910;SDS011;18457;52.432;16.914;2023-02-01T15:47:13;12.10;;;4.70;;
31910;SDS011;18457;52.432;16.914;2023-02-01T15:49:45;14.70;;;4.00;;